ROMMA est une association bénévole à but non lucratif. Votre soutien est indispensable : ADHERER à ROMMA ou FAIRE un DON

Pommerol - (26, Drôme)

Baronnies (780 m)   Longitude: 5° 27' 28.8"   Latitude: 44° 26' 23'' N Station partenaire n°78
 

Détail journalier du     <<     >>

Température Precipitation Humidité Pression Vent Dir Rafale Dir. rafale
Heure (°C) (mm) (%) (hPa) (km/h) (km/h)
01:00 13.806510145ONO27ONO
02:00 13.106910146ONO29NNO
03:00 12.306910141ONO18NO
04:00 11.906910141O13ONO
05:00 12.306810135ONO32NO
06:00 12.307010135ONO27NO
07:00 12.107010136ONO27NO
08:00 12.107010138ONO31NO
09:00 12.406710149ONO32ONO
10:00 13.306510145ONO31NO
11:00 14.506110148ONO34ONO
12:00 15.3057101311ONO39O
13:00 16.0056101312ONO44NNO
14:00 15.2058101315ONO42ONO
15:00 15.6059101312ONO37ONO
16:00 15.705910138ONO31ONO
17:00 15.205910138ONO31NO
18:00 15.105910137ONO26NNO
19:00 14.605810147ONO29ONO
20:00 13.806110143ONO31ONO
21:00 13.206510141ONO10ONO
22:00 13.106910152ONO19ONO
23:00 11.50741015010NO
minuit 10.3080101500

Graphique du 05-10-2019

 

Serveur OMMA